Tenn Ridge, Tennessee
Current Conditions -  °F | °C
As of 2:18 PM on Thursday 27 Nov 2014 (Local Time) from KHOP Reporting Station
Broken Clouds Broken Clouds  
Wind Chill: 25°   Ceiling: 3100
Heat Index: 34°   Visibility: 10mi
Dew Point: 21°   Wind: 12mph
Humidity: 60%   Direction: 310°NW
Pressure: 30.44"   Gusts: 17mph
Location:  36.3449°N, 87.805°W
Report Text: KHOP 272018Z AUTO 31010G15KT 10SM BKN031 01/M06 A3044 RMK AO2
Loading
Personal Weather Stations






























Interactive Weather Map New forecast layout! Learn more

10-Day Weather Forecast

Advertisements
Track Severe Weather on mobile